Time;durP1;ratioP1;P1;durP2;ratioP2;P2;SDS_P1;SDS_P2;PMS_P1;PMS_P2;Temp;Humidity;BMP_temperature;BMP_pressure;BME280_temperature;BME280_humidity;BME280_pressure;Samples;Min_cycle;Max_cycle;Signal;HPM_P1;HPM_P2
2022/11/03 00:01:08;;;;;;;7.88;2.15;;;;;;;9.30;84.20;101361.41;4983479;28;20050;-84
2022/11/03 00:03:34;;;;;;;10.15;2.30;;;;;;;9.30;83.96;101355.41;4991479;28;20058;-80
2022/11/03 00:06:06;;;;;;;15.55;2.38;;;;;;;9.27;84.09;101360.88;4991363;28;20059;-84
2022/11/03 00:08:37;;;;;;;14.82;2.78;;;;;;;9.27;84.25;101353.13;4977117;28;20026;-79
2022/11/03 00:11:13;;;;;;;6.00;1.80;;;;;;;9.28;84.40;101354.72;4974520;28;25208;-85
2022/11/03 00:13:42;;;;;;;10.35;3.05;;;;;;;9.30;84.12;101348.47;4984918;28;20073;-78
2022/11/03 00:16:09;;;;;;;8.23;2.33;;;;;;;9.27;84.08;101353.13;4955698;28;20035;-82
2022/11/03 00:18:42;;;;;;;15.65;3.28;;;;;;;9.31;83.89;101351.91;4971465;28;22128;-82
2022/11/03 00:21:10;;;;;;;20.63;3.28;;;;;;;9.28;84.26;101341.78;4985582;28;20030;-82
2022/11/03 00:23:43;;;;;;;11.77;2.70;;;;;;;9.33;84.09;101337.03;4988917;28;20117;-82
2022/11/03 00:26:20;;;;;;;14.30;2.67;;;;;;;9.37;83.98;101348.75;4990607;28;20575;-80
2022/11/03 00:28:47;;;;;;;13.18;2.63;;;;;;;9.36;84.25;101339.34;4962925;28;20030;-82
2022/11/03 00:31:34;;;;;;;19.90;2.55;;;;;;;9.27;84.38;101335.00;4985084;28;20037;-80
2022/11/03 00:34:00;;;;;;;16.70;3.60;;;;;;;9.34;84.18;101330.91;4980870;28;20048;-83
2022/11/03 00:36:31;;;;;;;15.18;3.60;;;;;;;9.30;84.34;101337.31;4991409;28;20631;-82
2022/11/03 00:38:57;;;;;;;17.52;3.50;;;;;;;9.31;84.33;101329.41;4984082;28;20042;-81
2022/11/03 00:41:24;;;;;;;13.52;2.10;;;;;;;9.34;84.19;101334.31;4974697;28;20130;-85
2022/11/03 00:43:50;;;;;;;12.93;1.92;;;;;;;9.37;84.37;101328.06;4985243;28;20510;-85
2022/11/03 00:46:24;;;;;;;12.38;2.17;;;;;;;9.45;83.64;101325.59;4969446;28;20519;-80
2022/11/03 00:48:49;;;;;;;16.33;2.63;;;;;;;9.40;84.17;101326.94;4982553;28;20479;-81
2022/11/03 00:51:18;;;;;;;8.32;1.75;;;;;;;9.47;83.95;101323.69;4990257;28;20066;-84
2022/11/03 00:53:44;;;;;;;10.57;2.22;;;;;;;9.47;83.87;101325.47;4978119;28;20483;-83
2022/11/03 00:56:18;;;;;;;16.08;2.60;;;;;;;9.40;84.11;101320.03;4988341;28;20388;-85
2022/11/03 00:58:45;;;;;;;13.88;2.20;;;;;;;9.41;84.18;101318.25;4977359;28;20062;-81
2022/11/03 01:01:17;;;;;;;12.70;2.10;;;;;;;9.31;84.61;101313.88;4991683;28;20035;-82
2022/11/03 01:06:52;;;;;;;16.17;2.83;;;;;;;9.28;85.09;101311.56;4960456;28;20043;-81
2022/11/03 01:09:22;;;;;;;11.98;2.30;;;;;;;9.26;85.61;101304.88;4972869;28;20118;-82
2022/11/03 01:12:09;;;;;;;14.70;2.35;;;;;;;9.15;85.80;101306.66;4980785;28;20042;-82
2022/11/03 01:14:49;;;;;;;14.00;3.47;;;;;;;9.24;85.72;101302.44;4993788;28;20081;-81
2022/11/03 01:17:17;;;;;;;15.80;2.20;;;;;;;9.24;86.16;101294.66;4968970;28;20081;-83
2022/11/03 01:19:43;;;;;;;9.02;2.10;;;;;;;9.09;86.54;101296.00;4980325;28;20038;-83
2022/11/03 01:22:11;;;;;;;17.30;3.15;;;;;;;9.09;86.73;101296.81;4983784;28;20046;-83
2022/11/03 01:24:36;;;;;;;14.65;2.20;;;;;;;9.08;86.89;101295.22;4989203;28;20045;-83
2022/11/03 01:27:02;;;;;;;17.02;2.40;;;;;;;9.06;87.34;101291.09;4993009;28;20039;-84
2022/11/03 01:29:28;;;;;;;12.95;2.70;;;;;;;9.13;87.15;101285.25;4981914;28;20040;-83
2022/11/03 01:31:53;;;;;;;16.02;2.85;;;;;;;9.04;87.36;101282.66;4986913;28;20046;-82
2022/11/03 01:34:20;;;;;;;14.18;3.47;;;;;;;9.00;87.55;101276.94;4960451;28;20094;-83
2022/11/03 01:36:46;;;;;;;18.45;2.75;;;;;;;8.91;88.12;101277.72;4964294;28;20058;-83
2022/11/03 01:39:17;;;;;;;18.15;3.20;;;;;;;8.90;88.14;101265.75;4989368;28;20554;-83
2022/11/03 01:41:44;;;;;;;12.73;3.05;;;;;;;8.95;88.70;101263.59;4985013;28;20042;-82
2022/11/03 01:44:10;;;;;;;27.88;4.38;;;;;;;9.05;88.45;101267.00;4987343;28;20046;-83
2022/11/03 01:46:42;;;;;;;17.42;3.75;;;;;;;8.96;88.59;101254.88;4972657;28;20042;-83
2022/11/03 01:49:26;;;;;;;13.07;2.58;;;;;;;9.00;88.82;101245.88;4984484;28;20053;-82
2022/11/03 01:52:04;;;;;;;16.45;2.78;;;;;;;8.86;89.10;101243.72;4983803;28;20038;-84
2022/11/03 01:54:31;;;;;;;19.48;3.20;;;;;;;8.84;89.89;101236.06;4987515;28;20034;-84
2022/11/03 01:56:58;;;;;;;25.27;2.97;;;;;;;8.86;90.02;101228.19;4983740;28;20046;-83
2022/11/03 01:59:24;;;;;;;17.42;2.38;;;;;;;8.88;89.84;101228.88;4955299;28;20083;-83
2022/11/03 02:01:50;;;;;;;11.60;2.40;;;;;;;8.87;89.98;101228.06;4986336;28;20070;-84
2022/11/03 02:04:29;;;;;;;15.77;2.45;;;;;;;8.90;90.07;101227.78;4954678;28;20026;-83
2022/11/03 02:07:40;;;;;;;20.77;2.75;;;;;;;8.97;90.30;101220.31;4972906;28;20038;-81
2022/11/03 02:10:07;;;;;;;11.55;2.50;;;;;;;8.98;90.04;101215.94;4963225;28;20133;-80
2022/11/03 02:12:34;;;;;;;14.73;2.10;;;;;;;9.00;90.00;101207.09;4989227;28;20035;-82
2022/11/03 02:15:06;;;;;;;13.93;2.67;;;;;;;9.03;89.74;101211.19;4970652;28;20030;-81
2022/11/03 02:17:33;;;;;;;13.73;2.00;;;;;;;9.00;89.98;101201.91;4992578;28;20039;-81
2022/11/03 02:20:03;;;;;;;14.93;2.70;;;;;;;9.00;90.61;101199.31;4985948;28;20549;-82
2022/11/03 02:22:40;;;;;;;17.35;2.50;;;;;;;8.96;90.58;101208.31;4979060;28;20089;-81
2022/11/03 02:25:33;;;;;;;16.80;2.20;;;;;;;9.02;90.16;101207.75;4990803;28;20068;-81
2022/11/03 02:27:59;;;;;;;12.73;2.28;;;;;;;9.03;90.30;101200.84;4981493;28;20861;-84
2022/11/03 02:30:33;;;;;;;19.95;2.67;;;;;;;9.01;90.44;101195.81;4969688;28;20042;-82
2022/11/03 02:33:23;;;;;;;14.68;2.38;;;;;;;9.03;90.54;101187.91;4996664;28;20058;-83
2022/11/03 02:35:52;;;;;;;14.32;2.45;;;;;;;9.04;90.65;101184.34;4978415;28;20048;-86
2022/11/03 02:38:22;;;;;;;13.35;2.50;;;;;;;8.97;90.86;101178.94;4985949;28;20415;-81
2022/11/03 02:40:53;;;;;;;12.18;1.80;;;;;;;9.01;91.29;101166.53;4969937;28;20039;-83
2022/11/03 02:43:21;;;;;;;11.50;2.30;;;;;;;9.12;90.44;101161.22;4967346;28;20081;-82
2022/11/03 02:45:48;;;;;;;15.70;2.35;;;;;;;9.06;90.65;101156.56;4949096;28;20035;-81
2022/11/03 02:48:16;;;;;;;19.60;3.58;;;;;;;9.06;90.97;101147.06;4974056;28;20030;-81
2022/11/03 02:50:42;;;;;;;17.75;3.05;;;;;;;9.01;91.31;101143.25;4964555;28;20046;-82
2022/11/03 02:53:12;;;;;;;15.75;2.58;;;;;;;9.08;91.62;101139.97;4957103;28;20030;-79
2022/11/03 02:55:41;;;;;;;14.60;2.75;;;;;;;9.08;91.55;101139.97;4965471;28;20041;-83
2022/11/03 02:58:25;;;;;;;12.70;2.22;;;;;;;9.02;91.49;101135.34;4974570;28;20039;-86
2022/11/03 03:01:01;;;;;;;15.65;2.63;;;;;;;9.00;92.25;101133.84;4982908;28;20058;-82
2022/11/03 03:03:28;;;;;;;13.55;2.33;;;;;;;9.18;91.50;101137.38;4979270;28;20038;-82
2022/11/03 03:06:03;;;;;;;10.85;2.47;;;;;;;9.21;91.37;101124.19;4982789;28;20039;-84
2022/11/03 03:08:29;;;;;;;15.95;2.65;;;;;;;9.24;91.67;101129.06;4988988;28;20030;-85
2022/11/03 03:10:59;;;;;;;12.13;2.33;;;;;;;9.30;91.44;101125.09;4972414;28;20042;-81
2022/11/03 03:13:25;;;;;;;12.32;2.05;;;;;;;9.30;91.56;101120.72;4970066;28;20035;-82
2022/11/03 03:16:09;;;;;;;16.00;2.80;;;;;;;9.13;92.14;101122.25;4983705;28;20034;-84
2022/11/03 03:18:47;;;;;;;13.23;3.30;;;;;;;9.29;91.76;101123.47;4970876;28;20395;-79
2022/11/03 03:21:24;;;;;;;13.75;2.80;;;;;;;9.37;92.02;101117.59;4975250;28;20395;-81
2022/11/03 03:24:13;;;;;;;17.10;2.55;;;;;;;9.37;91.53;101121.00;4975768;28;20062;-85
2022/11/03 03:26:48;;;;;;;9.55;2.47;;;;;;;9.28;92.32;101109.69;4993898;28;20041;-81
2022/11/03 03:29:22;;;;;;;14.38;2.67;;;;;;;9.32;92.19;101105.06;4972083;28;20163;-83
2022/11/03 03:31:55;;;;;;;8.43;2.15;;;;;;;9.41;92.51;101103.41;4983986;28;20495;-81
2022/11/03 03:34:23;;;;;;;17.88;3.17;;;;;;;9.45;92.13;101109.94;4969444;28;20069;-82
2022/11/03 03:36:50;;;;;;;15.27;2.72;;;;;;;9.44;92.32;101106.53;4973188;28;20045;-86
2022/11/03 03:39:18;;;;;;;16.52;2.50;;;;;;;9.42;92.58;101098.09;4975548;28;20027;-84
2022/11/03 03:41:47;;;;;;;15.00;2.13;;;;;;;9.44;92.75;101096.19;4975411;28;20037;-83
2022/11/03 03:44:14;;;;;;;15.43;2.83;;;;;;;9.52;93.29;101093.69;4990458;28;20113;-82
2022/11/03 03:47:05;;;;;;;14.90;2.45;;;;;;;9.60;92.79;101097.34;4976659;28;20030;-82
2022/11/03 03:49:30;;;;;;;17.70;2.20;;;;;;;9.60;92.50;101092.19;4982807;28;20054;-80
2022/11/03 03:51:56;;;;;;;9.23;2.05;;;;;;;9.61;92.89;101091.22;4997281;28;20042;-83
2022/11/03 03:54:21;;;;;;;13.75;2.85;;;;;;;9.56;92.93;101091.66;4977283;28;20027;-83
2022/11/03 03:57:10;;;;;;;7.95;2.13;;;;;;;9.57;93.13;101084.69;4961119;28;20104;-84
2022/11/03 03:59:35;;;;;;;15.55;1.95;;;;;;;9.58;92.97;101086.31;4975421;28;20120;-84
2022/11/03 04:02:01;;;;;;;12.32;2.50;;;;;;;9.63;92.92;101087.53;4969684;28;20062;-79
2022/11/03 04:04:27;;;;;;;13.88;2.63;;;;;;;9.71;93.06;101079.84;4973726;28;20030;-83
2022/11/03 04:07:45;;;;;;;16.92;3.90;;;;;;;9.66;92.85;101068.28;4987495;28;20043;-81
2022/11/03 04:09:38;;;;;;;16.10;2.28;;;;;;;9.73;92.81;101071.94;4987624;28;20054;-82
2022/11/03 04:23:01;;;;;;;14.35;2.40;;;;;;;9.78;93.05;101053.41;4992854;28;20038;-81
2022/11/03 04:25:26;;;;;;;17.55;2.40;;;;;;;9.71;93.37;101058.34;4990780;28;20479;-83
2022/11/03 04:27:52;;;;;;;20.73;2.30;;;;;;;9.78;93.27;101046.44;4991119;28;20436;-81
2022/11/03 04:30:19;;;;;;;12.30;2.30;;;;;;;9.83;92.91;101051.19;4975378;28;20034;-84
2022/11/03 04:32:47;;;;;;;15.88;2.47;;;;;;;9.82;93.12;101047.78;4995732;28;20035;-85
2022/11/03 04:35:25;;;;;;;13.63;2.15;;;;;;;9.89;93.38;101038.47;4957707;28;20476;-79
2022/11/03 04:37:58;;;;;;;13.65;2.95;;;;;;;9.87;93.22;101032.63;4957227;28;20487;-81
2022/11/03 04:40:23;;;;;;;;;;;;;;;9.84;93.46;101024.31;4985593;28;20070;-82
2022/11/03 04:42:49;;;;;;;8.13;1.88;;;;;;;9.89;93.46;101016.94;4975384;28;19921;-82
2022/11/03 04:45:32;;;;;;;17.25;3.85;;;;;;;9.90;93.26;101027.13;4988903;28;20030;-83
2022/11/03 04:48:01;;;;;;;13.70;2.13;;;;;;;9.91;93.57;101017.63;4990196;28;20022;-80
2022/11/03 04:50:26;;;;;;;12.60;1.95;;;;;;;10.01;93.13;101010.56;4982190;28;20034;-81
2022/11/03 04:52:57;;;;;;;16.08;3.38;;;;;;;9.98;92.83;101004.88;4994581;28;20999;-81
2022/11/03 04:55:23;;;;;;;15.40;2.55;;;;;;;9.99;93.07;101004.72;4975379;28;20497;-83
2022/11/03 04:57:55;;;;;;;17.02;2.58;;;;;;;9.96;93.25;101006.78;4986823;28;20415;-86
2022/11/03 05:00:21;;;;;;;15.75;3.03;;;;;;;9.99;93.02;101004.72;4987285;28;20038;-82
2022/11/03 05:02:49;;;;;;;10.85;2.92;;;;;;;10.06;93.05;100987.63;4972487;28;20046;-83
2022/11/03 05:05:22;;;;;;;16.42;2.60;;;;;;;10.06;92.66;100995.41;4983909;28;20038;-82
2022/11/03 05:07:51;;;;;;;17.83;2.83;;;;;;;10.05;93.17;100992.97;4966837;28;20039;-80
2022/11/03 05:10:22;;;;;;;11.30;2.55;;;;;;;10.01;93.40;100987.25;4974076;28;20042;-79
2022/11/03 05:12:48;;;;;;;14.13;2.20;;;;;;;10.03;92.79;100984.53;4949340;28;20031;-81
2022/11/03 05:15:35;;;;;;;18.65;2.50;;;;;;;10.00;93.55;100982.22;4981821;28;20480;-83
2022/11/03 05:18:13;;;;;;;13.85;2.35;;;;;;;10.10;92.74;100977.78;4985759;28;20065;-84
2022/11/03 05:20:44;;;;;;;16.08;2.70;;;;;;;10.13;93.22;100975.72;4956925;28;20039;-81
2022/11/03 05:23:10;;;;;;;14.70;2.33;;;;;;;10.17;92.77;100975.41;4976491;28;20038;-81
2022/11/03 05:25:49;;;;;;;13.93;2.03;;;;;;;10.09;93.00;100968.38;4972667;28;20048;-80
2022/11/03 05:28:23;;;;;;;10.43;2.22;;;;;;;10.16;92.79;100958.25;4981296;28;20057;-81
2022/11/03 05:30:49;;;;;;;9.85;2.28;;;;;;;10.11;92.94;100958.69;4972612;28;20079;-79
2022/11/03 05:33:29;;;;;;;14.88;1.90;;;;;;;10.09;93.43;100955.44;4958440;28;20076;-83
2022/11/03 05:35:58;;;;;;;15.88;2.58;;;;;;;10.13;93.21;100948.97;4988578;28;20496;-82
2022/11/03 05:38:24;;;;;;;9.30;2.65;;;;;;;10.18;92.84;100945.97;4956295;28;20041;-83
2022/11/03 05:40:52;;;;;;;12.85;2.17;;;;;;;10.20;92.72;100955.19;4971594;28;20626;-82
2022/11/03 05:43:19;;;;;;;18.98;2.45;;;;;;;10.22;92.71;100950.69;4962231;28;20030;-83
2022/11/03 05:45:45;;;;;;;10.75;2.33;;;;;;;10.20;92.27;100941.44;4980923;28;20410;-84
2022/11/03 05:48:32;;;;;;;22.45;3.80;;;;;;;10.08;92.85;100931.31;4977019;28;20031;-80
2022/11/03 05:51:01;;;;;;;8.90;2.10;;;;;;;10.08;93.24;100940.88;4968539;28;20046;-82
2022/11/03 05:53:37;;;;;;;12.48;2.20;;;;;;;10.01;93.68;100940.63;4987061;28;20423;-82
2022/11/03 05:56:04;;;;;;;16.17;2.40;;;;;;;10.05;93.60;100941.94;4977781;28;20050;-82
2022/11/03 05:58:42;;;;;;;11.98;2.65;;;;;;;10.01;94.10;100932.06;4991175;28;20030;-83
2022/11/03 06:01:15;;;;;;;12.45;2.92;;;;;;;9.99;93.89;100927.00;4971326;28;20034;-86
2022/11/03 06:03:41;;;;;;;13.52;2.53;;;;;;;10.06;93.93;100922.88;4964824;28;20495;-84
2022/11/03 06:06:15;;;;;;;10.65;2.15;;;;;;;9.98;94.10;100924.56;4960010;28;20062;-83
2022/11/03 06:08:40;;;;;;;8.98;2.78;;;;;;;9.90;94.50;100917.53;4975459;28;20044;-82
2022/11/03 06:11:14;;;;;;;10.70;2.67;;;;;;;10.08;94.27;100920.13;4988526;28;20129;-84
2022/11/03 06:13:40;;;;;;;10.55;2.15;;;;;;;10.10;93.46;100915.63;4989473;28;20118;-80
2022/11/03 06:16:25;;;;;;;14.07;2.08;;;;;;;10.13;93.97;100912.69;4968880;28;20596;-82
2022/11/03 06:18:51;;;;;;;13.40;3.00;;;;;;;10.02;94.08;100911.19;4959822;28;20747;-82
2022/11/03 06:21:21;;;;;;;12.35;2.70;;;;;;;10.06;94.52;100915.09;4976423;28;20085;-82
2022/11/03 06:23:47;;;;;;;20.75;2.80;;;;;;;10.10;94.30;100913.81;4958124;28;20096;-81
2022/11/03 06:26:25;;;;;;;13.20;2.53;;;;;;;10.06;94.21;100906.53;4989267;28;20521;-83
2022/11/03 06:28:51;;;;;;;10.98;2.60;;;;;;;10.08;94.22;100897.63;4997510;28;20038;-82
2022/11/03 06:31:22;;;;;;;15.93;3.10;;;;;;;10.10;94.03;100892.28;4986808;28;20047;-81
2022/11/03 06:33:48;;;;;;;15.93;2.90;;;;;;;10.08;94.36;100886.44;4989492;28;20068;-83
2022/11/03 06:36:44;;;;;;;16.15;2.38;;;;;;;10.01;94.25;100894.00;4991489;28;20475;-83
2022/11/03 06:39:22;;;;;;;13.00;3.13;;;;;;;10.04;94.44;100887.69;4972643;28;20073;-84
2022/11/03 06:41:48;;;;;;;19.55;3.33;;;;;;;10.04;94.36;100880.75;4987924;28;20064;-82
2022/11/03 06:44:27;;;;;;;14.75;2.90;;;;;;;10.07;94.15;100872.66;4991765;28;20034;-82
2022/11/03 06:47:00;;;;;;;17.33;3.58;;;;;;;10.04;94.76;100867.81;4988157;28;20038;-83
2022/11/03 06:49:32;;;;;;;16.50;4.00;;;;;;;10.02;95.12;100871.47;4970397;28;20451;-81
2022/11/03 06:52:04;;;;;;;15.87;4.10;;;;;;;10.12;94.43;100862.66;4975649;28;20069;-83
2022/11/03 06:54:30;;;;;;;16.20;3.72;;;;;;;10.07;94.37;100857.13;4994269;28;20030;-82
2022/11/03 06:56:55;;;;;;;18.05;4.40;;;;;;;9.97;95.15;100869.34;4980822;28;20054;-83
2022/11/03 06:59:21;;;;;;;19.63;3.90;;;;;;;10.00;94.75;100863.88;4993485;28;20170;-82
2022/11/03 07:01:52;;;;;;;17.45;4.20;;;;;;;10.10;94.51;100866.38;4975401;28;20109;-83
2022/11/03 07:04:21;;;;;;;21.48;4.47;;;;;;;10.10;94.22;100866.38;4993773;28;20117;-86
2022/11/03 07:06:47;;;;;;;18.13;4.25;;;;;;;10.18;93.94;100861.25;4982278;28;20065;-82
2022/11/03 07:09:18;;;;;;;13.02;3.58;;;;;;;10.15;94.12;100851.19;4994032;28;20085;-89
2022/11/03 07:11:54;;;;;;;21.05;4.25;;;;;;;10.11;94.15;100857.63;4976642;28;20045;-83
2022/11/03 07:14:31;;;;;;;13.20;3.88;;;;;;;10.09;94.08;100846.59;4993675;28;20030;-83
2022/11/03 07:17:20;;;;;;;15.30;4.47;;;;;;;10.15;93.70;100848.59;4977493;28;20647;-86
2022/11/03 07:19:51;;;;;;;18.50;3.17;;;;;;;10.21;93.58;100842.81;4988766;28;20038;-81
2022/11/03 07:22:24;;;;;;;14.27;3.33;;;;;;;10.28;93.25;100843.00;5000042;28;20046;-84
2022/11/03 07:24:58;;;;;;;22.83;4.75;;;;;;;10.35;92.87;100832.88;4989299;28;20042;-83
2022/11/03 07:27:37;;;;;;;17.38;3.22;;;;;;;10.34;93.30;100837.25;4987108;28;20522;-84
2022/11/03 07:30:12;;;;;;;14.20;3.08;;;;;;;10.38;92.78;100830.81;4994589;28;20030;-85
2022/11/03 07:32:38;;;;;;;12.32;2.58;;;;;;;10.46;92.59;100824.84;4954883;28;20048;-82
2022/11/03 07:35:28;;;;;;;10.77;2.95;;;;;;;10.48;91.96;100825.50;4976848;28;20034;-84
2022/11/03 07:37:54;;;;;;;18.83;4.35;;;;;;;10.54;91.77;100824.88;4966151;28;20047;-84
2022/11/03 07:40:26;;;;;;;12.95;3.20;;;;;;;10.61;91.47;100828.47;4978218;28;20030;-85
2022/11/03 07:42:57;;;;;;;13.40;2.60;;;;;;;10.73;90.60;100825.59;4991537;28;20129;-83
2022/11/03 07:45:37;;;;;;;13.52;2.78;;;;;;;10.76;89.92;100815.72;4976152;28;20053;-82
2022/11/03 07:48:44;;;;;;;13.45;2.78;;;;;;;10.75;89.92;100815.88;4965249;28;20384;-83
2022/11/03 07:51:31;;;;;;;10.75;3.38;;;;;;;10.86;89.65;100816.41;4958787;28;20391;-83
2022/11/03 07:54:08;;;;;;;12.00;3.00;;;;;;;10.89;88.99;100810.09;4996265;28;21125;-84
2022/11/03 07:57:04;;;;;;;7.78;2.67;;;;;;;10.91;88.58;100815.94;4993370;28;20463;-79
2022/11/03 07:59:42;;;;;;;8.98;2.70;;;;;;;10.95;88.73;100811.25;4974111;28;20512;-79
2022/11/03 08:02:24;;;;;;;16.88;2.80;;;;;;;11.05;87.99;100802.34;4982711;28;20042;-84
2022/11/03 08:04:53;;;;;;;11.05;2.45;;;;;;;11.03;88.31;100804.28;4978186;28;20058;-85
2022/11/03 08:07:18;;;;;;;17.55;2.95;;;;;;;11.02;88.11;100799.25;4979260;28;20646;-84
2022/11/03 08:09:44;;;;;;;10.80;2.50;;;;;;;11.08;88.01;100796.03;4990793;28;20038;-84
2022/11/03 08:12:09;;;;;;;12.02;2.42;;;;;;;11.16;87.66;100788.25;4978095;28;20031;-84
2022/11/03 08:14:36;;;;;;;13.75;2.47;;;;;;;11.21;87.70;100787.81;4978901;28;20400;-82
2022/11/03 08:17:02;;;;;;;9.95;2.60;;;;;;;11.25;87.20;100792.50;4995515;28;20125;-86
2022/11/03 08:19:28;;;;;;;12.02;2.47;;;;;;;11.30;87.28;100786.81;4994308;28;20380;-83
2022/11/03 08:21:53;;;;;;;11.77;2.17;;;;;;;11.38;86.98;100781.66;4992451;28;20042;-81
2022/11/03 08:24:24;;;;;;;15.18;2.15;;;;;;;11.37;86.83;100776.59;4993308;28;20031;-87
2022/11/03 08:26:50;;;;;;;12.35;2.55;;;;;;;11.45;85.86;100774.84;4994563;28;20041;-85
2022/11/03 08:29:18;;;;;;;7.82;2.42;;;;;;;11.44;86.10;100773.19;4977653;28;20026;-84
2022/11/03 08:31:44;;;;;;;7.13;2.08;;;;;;;11.52;85.93;100776.78;4957523;28;20129;-85
2022/11/03 08:34:10;;;;;;;11.75;2.15;;;;;;;11.49;86.49;100777.94;4959779;28;20318;-86
2022/11/03 08:36:36;;;;;;;13.80;2.65;;;;;;;11.56;86.04;100765.88;4984783;28;20045;-85
2022/11/03 08:39:02;;;;;;;11.00;2.47;;;;;;;11.56;85.47;100765.09;4981528;28;20034;-83
2022/11/03 08:41:28;;;;;;;10.88;2.58;;;;;;;11.56;85.64;100763.28;4970795;28;20074;-87
2022/11/03 08:43:55;;;;;;;12.48;2.10;;;;;;;11.61;85.59;100753.22;4983980;28;20038;-83
2022/11/03 08:46:20;;;;;;;11.10;2.40;;;;;;;11.63;85.29;100740.09;4979885;28;20038;-85
2022/11/03 08:48:47;;;;;;;10.35;2.60;;;;;;;11.59;85.19;100739.59;4998347;28;20041;-82
2022/11/03 08:51:13;;;;;;;11.93;1.95;;;;;;;11.64;85.18;100731.31;4973326;28;20440;-84
2022/11/03 08:53:45;;;;;;;11.57;2.70;;;;;;;11.66;84.79;100730.19;4985521;28;20034;-82
2022/11/03 08:56:11;;;;;;;11.75;2.28;;;;;;;11.68;84.71;100727.44;4991874;28;20069;-81
2022/11/03 08:58:37;;;;;;;8.98;2.10;;;;;;;11.67;85.00;100720.59;4981693;28;20035;-84
2022/11/03 09:01:03;;;;;;;7.32;2.30;;;;;;;11.79;84.47;100726.25;4990015;28;20041;-82
2022/11/03 09:03:28;;;;;;;11.25;2.80;;;;;;;11.74;84.73;100721.56;4986538;28;20034;-85
2022/11/03 09:05:54;;;;;;;11.23;2.33;;;;;;;11.72;84.62;100713.13;4994945;28;20424;-83
2022/11/03 09:08:19;;;;;;;8.18;2.83;;;;;;;11.77;84.50;100708.25;4978116;28;20031;-84
2022/11/03 09:10:45;;;;;;;10.05;2.42;;;;;;;11.84;84.42;100704.00;4974771;28;20050;-80
2022/11/03 09:13:10;;;;;;;13.57;2.95;;;;;;;11.89;84.12;100693.13;4993683;28;20031;-86
2022/11/03 09:15:36;;;;;;;8.35;2.33;;;;;;;11.93;83.88;100684.03;4992097;28;20026;-82
2022/11/03 09:18:01;;;;;;;9.20;2.53;;;;;;;11.99;83.75;100677.38;4954649;28;20031;-84
2022/11/03 09:20:27;;;;;;;9.85;2.28;;;;;;;12.09;83.23;100675.34;4951187;28;20031;-85
2022/11/03 09:22:52;;;;;;;14.85;2.50;;;;;;;12.12;82.51;100672.44;4972156;28;20034;-83
2022/11/03 09:25:18;;;;;;;9.00;2.17;;;;;;;12.12;82.60;100662.03;4980588;28;20046;-81
2022/11/03 09:27:44;;;;;;;10.68;2.65;;;;;;;12.21;82.43;100652.44;4980872;28;20035;-84
2022/11/03 09:30:10;;;;;;;10.63;2.58;;;;;;;12.23;82.50;100651.25;4974091;28;20121;-84
2022/11/03 09:32:36;;;;;;;7.78;2.20;;;;;;;12.21;82.25;100642.81;4965045;28;20038;-83
2022/11/03 09:35:02;;;;;;;17.13;2.97;;;;;;;12.31;81.41;100624.41;4975723;28;20073;-81
2022/11/03 09:37:28;;;;;;;13.13;2.67;;;;;;;12.29;81.47;100613.38;4961094;28;20068;-85
2022/11/03 09:39:53;;;;;;;9.57;2.45;;;;;;;12.32;81.64;100610.44;4964943;28;20035;-84
2022/11/03 09:42:20;;;;;;;8.07;2.25;;;;;;;12.27;81.55;100610.94;4982269;28;20169;-84
2022/11/03 09:44:47;;;;;;;12.18;2.70;;;;;;;12.32;81.34;100609.63;4989608;28;20038;-80
2022/11/03 09:47:26;;;;;;;12.73;2.55;;;;;;;12.39;81.51;100594.94;4981321;28;20034;-81
2022/11/03 09:49:52;;;;;;;11.27;2.30;;;;;;;12.32;81.19;100589.66;4943402;28;20462;-83
2022/11/03 09:52:22;;;;;;;10.70;3.33;;;;;;;12.43;80.98;100591.00;4988997;28;20034;-83
2022/11/03 09:54:48;;;;;;;14.63;2.72;;;;;;;12.40;81.00;100591.38;4971538;28;20042;-84
2022/11/03 09:57:15;;;;;;;13.60;2.90;;;;;;;12.52;80.84;100578.78;4974609;28;20042;-83
2022/11/03 09:59:44;;;;;;;8.20;2.45;;;;;;;12.53;81.61;100576.00;4960797;28;20706;-83
2022/11/03 10:02:29;;;;;;;9.52;2.13;;;;;;;12.59;80.63;100564.09;4973924;28;20399;-80
2022/11/03 10:05:05;;;;;;;4.78;2.28;;;;;;;12.61;80.08;100575.94;4969184;28;20033;-82
2022/11/03 10:07:31;;;;;;;6.65;2.10;;;;;;;12.67;79.91;100577.03;4969609;28;20070;-82
2022/11/03 10:09:58;;;;;;;10.63;2.50;;;;;;;12.69;79.80;100562.06;4973439;28;20075;-81
2022/11/03 10:12:26;;;;;;;12.82;2.05;;;;;;;12.79;79.25;100539.22;4985681;28;20042;-82
2022/11/03 10:14:52;;;;;;;12.43;2.70;;;;;;;12.86;79.21;100557.50;4976253;28;20045;-83
2022/11/03 10:17:29;;;;;;;5.97;1.90;;;;;;;12.88;78.79;100549.53;4981730;28;20039;-85
2022/11/03 10:19:55;;;;;;;9.65;2.15;;;;;;;12.93;78.93;100540.22;4977840;28;20034;-83
2022/11/03 10:22:21;;;;;;;12.13;2.72;;;;;;;12.92;78.73;100536.00;4976138;28;20525;-80
2022/11/03 10:24:47;;;;;;;9.15;2.10;;;;;;;13.00;77.68;100530.72;4993299;28;20367;-83
2022/11/03 10:27:24;;;;;;;13.63;2.70;;;;;;;12.99;76.86;100513.47;4970693;28;20038;-83
2022/11/03 10:30:10;;;;;;;12.65;2.03;;;;;;;13.13;76.21;100509.28;4958479;28;20403;-84
2022/11/03 10:32:36;;;;;;;22.45;2.15;;;;;;;13.10;76.67;100516.63;4972738;28;20042;-83
2022/11/03 10:35:32;;;;;;;9.38;2.28;;;;;;;13.18;75.81;100499.09;4971720;28;20507;-83
2022/11/03 10:38:30;;;;;;;6.68;1.38;;;;;;;13.25;75.21;100494.81;4989287;28;20054;-79
2022/11/03 10:41:12;;;;;;;12.05;1.73;;;;;;;13.36;74.67;100483.16;4989577;28;20039;-79
2022/11/03 10:43:39;;;;;;;7.63;1.58;;;;;;;13.44;73.90;100479.63;4977237;28;20096;-80
2022/11/03 10:46:18;;;;;;;12.82;1.88;;;;;;;13.46;73.17;100467.25;4970762;28;20121;-83
2022/11/03 10:48:43;;;;;;;5.15;1.63;;;;;;;13.45;72.80;100465.66;4974818;28;20034;-86
2022/11/03 10:51:17;;;;;;;10.43;1.70;;;;;;;13.47;72.67;100462.84;4994668;28;20049;-82
2022/11/03 10:53:43;;;;;;;10.27;1.92;;;;;;;13.48;73.17;100464.47;4969959;28;20038;-79
2022/11/03 10:56:09;;;;;;;7.90;1.92;;;;;;;13.57;72.20;100464.16;4973958;28;20041;-82
2022/11/03 10:58:36;;;;;;;4.60;1.40;;;;;;;13.58;72.25;100460.56;4991577;28;20031;-83
2022/11/03 11:01:02;;;;;;;7.50;1.98;;;;;;;13.64;72.54;100453.81;4970032;28;20416;-80
2022/11/03 11:03:27;;;;;;;19.55;2.03;;;;;;;13.62;71.98;100451.41;4962042;28;20039;-83
2022/11/03 11:05:53;;;;;;;11.80;1.92;;;;;;;13.66;71.75;100454.44;4989290;28;20423;-85
2022/11/03 11:08:22;;;;;;;11.98;2.10;;;;;;;13.70;72.35;100458.28;4972159;28;20030;-81
2022/11/03 11:10:47;;;;;;;7.82;1.35;;;;;;;13.75;71.51;100450.75;4970839;28;20109;-79
2022/11/03 11:13:22;;;;;;;7.35;1.83;;;;;;;13.91;70.80;100452.28;4959262;28;20034;-82
2022/11/03 11:15:51;;;;;;;7.53;1.92;;;;;;;13.89;70.90;100437.84;4959208;28;20511;-84
2022/11/03 11:18:26;;;;;;;13.05;1.80;;;;;;;13.93;70.82;100434.66;4987440;28;20043;-84
2022/11/03 11:20:52;;;;;;;12.60;1.60;;;;;;;13.97;70.10;100427.28;4971040;28;20069;-81
2022/11/03 11:23:30;;;;;;;8.15;1.75;;;;;;;13.95;69.84;100422.25;4963538;28;20035;-83
2022/11/03 11:26:07;;;;;;;9.50;1.70;;;;;;;13.99;70.12;100427.88;4984057;28;20069;-80
2022/11/03 11:28:33;;;;;;;13.70;2.55;;;;;;;14.06;70.20;100420.13;4972999;28;20023;-83
2022/11/03 11:30:58;;;;;;;6.25;1.60;;;;;;;14.11;69.39;100412.53;4970892;28;20038;-83
2022/11/03 11:33:27;;;;;;;7.60;1.33;;;;;;;14.06;69.80;100407.91;4984661;28;20038;-84
2022/11/03 11:35:52;;;;;;;7.00;1.63;;;;;;;14.08;69.30;100394.69;4985979;28;20038;-81
2022/11/03 11:38:47;;;;;;;9.98;1.88;;;;;;;14.05;70.71;100379.41;4975570;28;20275;-82
2022/11/03 11:41:12;;;;;;;6.13;1.85;;;;;;;14.00;72.21;100385.19;4964329;28;20038;-85
2022/11/03 11:43:38;;;;;;;5.72;1.20;;;;;;;13.94;72.58;100384.16;4975501;28;20065;-78
2022/11/03 11:46:22;;;;;;;8.88;2.20;;;;;;;13.92;73.05;100386.16;4992979;28;20081;-80
2022/11/03 11:49:02;;;;;;;12.18;2.33;;;;;;;13.88;72.84;100371.88;4985321;28;20041;-84
2022/11/03 11:51:33;;;;;;;8.60;2.15;;;;;;;13.81;73.58;100363.19;4986981;28;20125;-84
2022/11/03 11:53:59;;;;;;;8.25;1.88;;;;;;;13.61;73.96;100342.16;4976289;28;20038;-83